Alley Springs, Missouri
Current Conditions -  °F | °C
As of 10:53 AM on Friday 31 Oct 2014 (Local Time) from KUNO Reporting Station
Overcast Overcast  
Wind Chill:   Ceiling: 2900
Heat Index:   Visibility: 10mi
Dew Point:   Wind: 18mph
Humidity: 59%   Direction: 340°NNW
Pressure: 30.26"   Gusts: 30mph
Location:  37.1833°N, 91.4819°W
Report Text: KUNO 311553Z AUTO 34016G26KT 10SM BKN029 OVC037 09/02 A3026 RMK AO2 PK WND 33026/1553 SLP246 T00940017
Loading
Personal Weather Stations






























Interactive Weather Map
Tropical Storm Tracking
New forecast layout! Learn more

10-Day Weather Forecast

Advertisements
Track Severe Weather on mobile